Envoy E145 at Dallas on Dec 8th 2018, failure of anti-ice system

Last Update: December 8, 2018 / 22:47:02 GMT/Zulu time

Bookmark this article
Incident Facts

Date of incident
Dec 8, 2018

Classification
Incident

Airline
Envoy Air

Flight number
MQ-3612

Aircraft Registration
N900AE

Aircraft Type
Embraer ERJ-145

ICAO Type Designator
E145

An Envoy Embraer ERJ-145, registration N900AE performing flight MQ-3612/AA-3612 from Dallas Ft. Worth,TX to Wichita Falls,TX (USA) with 21 passengers and 3 crew, was on final approach to Wichita Falls when the crew aborted the approach and decided to return to Dallas. On approach to Dallas the crew declared emergency reporting the failure of the stabilizer anti-ice system and continued for a safe landing on Ft. Worth's runway 36L about 10 minutes later.

Metars Wichita Falls:
KSPS 081730Z AUTO 36011KT 2SM -SN BR SCT009 BKN014 OVC019 00/00 A3031 RMK AO2 P0008 T00000000=
KSPS 081716Z AUTO 35013KT 1 3/4SM -SN BR BKN009 OVC013 00/00 A3032 RMK AO2 CIG 007V011 P0006 T00000000=
KSPS 081652Z AUTO 36014KT 2 1/2SM -SN BR OVC010 01/00 A3032 RMK AO2 UPE03B12E32RAB32E36SNB03E12B36 SLP272 P0009 T00060000=
KSPS 081649Z AUTO 36012KT 2 1/2SM -SN BR OVC010 01/00 A3032 RMK AO2 UPE03B12E32RAB32E36SNB03E12B36 P0009=
KSPS 081640Z AUTO 36015KT 3SM -SN BR OVC009 01/00 A3032 RMK AO2 UPE03B12E32RAB32E36SNB03E12B36 CIG 008V012 P0007 T00060000=
KSPS 081620Z AUTO 35015KT 3SM UP BR OVC010 00/00 A3032 RMK AO2 UPE03B12SNB03E12 CIG 008V012 P0003 T00000000=
KSPS 081606Z AUTO 35013KT 2 1/2SM -SN BR OVC010 00/00 A3032 RMK AO2 UPE03SNB03 CIG 008V012 P0001 T00000000=
KSPS 081552Z AUTO 36016KT 3SM UP BR OVC009 00/00 A3032 RMK AO2 RAE15UPB15SNB40E50 CIG 008V012 SLP273 P0005 T00000000=
KSPS 081536Z AUTO 35015KT 3SM UP BR OVC009 00/00 A3032 RMK AO2 RAE15UPB15 CIG 007V013 P0003 T00000000=
KSPS 081502Z AUTO 35016KT 4SM -RA BR OVC010 00/00 A3031 RMK AO2 P0001 T00000000=
KSPS 081452Z AUTO 35014KT 4SM -RA BR BKN009 OVC055 01/01 A3031 RMK AO2 SLP269 P0004 60006 T00060006 53009=
KSPS 081352Z AUTO 36014KT 6SM -RA BR BKN009 OVC050 01/00 A3029 RMK AO2 UPE09B26E29RAB09 SLP263 P0001 T00060000=

Metars DFW:
KDFW 081753Z 01015KT 3SM -RA BR BKN008 OVC012 04/03 A3019 RMK AO2 SLP224 P0002 60024 T00440033 10050 20044 58004 $=
KDFW 081735Z 36018KT 5SM -RA BR BKN007 OVC013 04/03 A3020 RMK AO2 P0001 T00440033 $=
KDFW 081653Z 36014G23KT 2 1/2SM -RA BR BKN007 OVC014 04/04 A3021 RMK AO2 SLP231 P0006 T00440039 $=
KDFW 081634Z 36014KT 2 1/2SM -RA BR BKN007 OVC015 04/04 A3022 RMK AO2 P0005 T00440039 $=
KDFW 081553Z 36014KT 1 3/4SM R17C/5500VP6000FT -RA BR BKN006 BKN010 OVC014 04/03 A3022 RMK AO2 SLP234 P0003 T00440033 $=
KDFW 081528Z 36013KT 1 3/4SM R17C/6000VP6000FT -RA BR BKN007 OVC012 04/03 A3021 RMK AO2 P0002 T00440033 $=
KDFW 081453Z 36012KT 2 1/2SM R17C/5500V6000FT -RA BR BKN007 OVC012 04/03 A3020 RMK AO2 SLP228 P0005 60013 T00440033 53013 $=
Aircraft Registration Data
Registration mark
N900AE
Country of Registration
United States
Date of Registration
AniqApkpjhAqAik Subscribe to unlock
Manufacturer
EMBRAER
Aircraft Model / Type
EMB-145LR
Number of Seats
ICAO Aircraft Type
E145
Year of Manufacture
Serial Number
Aircraft Address / Mode S Code (HEX)
Engine Count
Engine Manufacturer
Engine Model
Engine Type
Pounds of Thrust
Main Owner
GedqlpbAkgglfbqklpibkigjA l AjApqhAcAbpbgefbgiAglgpbencnncghdlhcnA eAidcilepccnq Subscribe to unlock
Incident Facts

Date of incident
Dec 8, 2018

Classification
Incident

Airline
Envoy Air

Flight number
MQ-3612

Aircraft Registration
N900AE

Aircraft Type
Embraer ERJ-145

ICAO Type Designator
E145

This article is published under license from Avherald.com. © of text by Avherald.com.
Article source

You can read 2 more free articles without a subscription.

Subscribe now and continue reading without any limits!

Are you a subscriber? Login
Subscribe

Read unlimited articles and receive our daily update briefing. Gain better insights into what is happening in commercial aviation safety.

Send tip

Support AeroInside by sending a small tip amount.

Related articles

Newest articles

Subscribe today

Are you researching aviation incidents? Get access to AeroInside Insights, unlimited read access and receive the daily newsletter.

Pick your plan and subscribe

Partner

Blockaviation logo

A new way to document and demonstrate airworthiness compliance and aircraft value. Find out more.

Virtual Speech logo

ELITE Simulation Solutions is a leading global provider of Flight Simulation Training Devices, IFR training software as well as flight controls and related services. Find out more.

AeroInside Blog
Popular aircraft
Airbus A320
Boeing 737-800
Boeing 737-800 MAX
Popular airlines
American Airlines
United
Delta
Air Canada
Lufthansa
British Airways